createdAt,value
2018-02-02T00:02:10.999Z,4.60
2018-02-02T00:04:41.679Z,4.70
2018-02-02T00:07:09.836Z,4.50
2018-02-02T00:09:38.003Z,4.40
2018-02-02T00:12:06.892Z,4.40
2018-02-02T00:14:35.745Z,4.80
2018-02-02T00:17:03.842Z,4.30
2018-02-02T00:19:31.954Z,4.40
2018-02-02T00:22:00.057Z,4.90
2018-02-02T00:24:28.152Z,4.90
2018-02-02T00:26:57.028Z,4.80
2018-02-02T00:29:25.897Z,4.90
2018-02-02T00:31:54.022Z,4.90
2018-02-02T00:34:22.124Z,4.50
2018-02-02T00:36:50.218Z,4.60
2018-02-02T00:39:18.324Z,4.40
2018-02-02T00:41:47.187Z,4.90
2018-02-02T00:44:15.326Z,4.80
2018-02-02T00:46:43.448Z,4.70
2018-02-02T00:49:11.547Z,4.70
2018-02-02T00:54:44.154Z,4.90
2018-02-02T00:57:12.330Z,4.90
2018-02-02T00:59:40.468Z,4.70
2018-02-02T01:02:09.356Z,4.90
2018-02-02T01:04:37.476Z,4.70
2018-02-02T01:07:05.586Z,4.70
2018-02-02T01:09:33.731Z,5.20
2018-02-02T01:12:01.869Z,4.70
2018-02-02T01:14:30.744Z,4.80
2018-02-02T01:16:59.634Z,4.90
2018-02-02T01:19:28.519Z,4.70
2018-02-02T01:21:56.654Z,4.90
2018-02-02T01:24:24.762Z,4.80
2018-02-02T01:26:52.878Z,4.70
2018-02-02T01:29:21.031Z,5.20
2018-02-02T01:31:49.944Z,4.60
2018-02-02T01:34:18.120Z,4.70
2018-02-02T01:36:46.228Z,5.20
2018-02-02T01:39:14.340Z,4.70
2018-02-02T01:41:43.232Z,5.10
2018-02-02T01:44:12.115Z,4.70
2018-02-02T01:46:41.021Z,4.70
2018-02-02T01:49:09.894Z,4.90
2018-02-02T01:51:38.779Z,4.90
2018-02-02T01:54:06.993Z,5.00
2018-02-02T01:56:35.092Z,4.90
2018-02-02T01:59:03.223Z,5.00
2018-02-02T02:01:31.339Z,4.70
2018-02-02T02:03:59.451Z,5.00
2018-02-02T02:06:28.351Z,5.20
2018-02-02T02:08:57.254Z,4.90
2018-02-02T02:11:25.441Z,5.00
2018-02-02T02:13:54.299Z,5.20
2018-02-02T02:16:23.166Z,5.00
2018-02-02T02:18:51.287Z,5.20
2018-02-02T02:21:19.470Z,5.00
2018-02-02T02:23:48.352Z,5.00
2018-02-02T02:26:16.453Z,5.10
2018-02-02T02:28:44.563Z,5.00
2018-02-02T02:31:12.699Z,5.00
2018-02-02T02:33:40.808Z,5.00
2018-02-02T02:36:08.935Z,4.90
2018-02-02T02:38:37.057Z,5.00
2018-02-02T02:41:06.031Z,5.00
2018-02-02T02:43:34.151Z,5.20
2018-02-02T02:46:02.263Z,5.00
2018-02-02T02:48:30.399Z,5.50
2018-02-02T02:50:58.504Z,5.00
2018-02-02T02:53:26.623Z,5.20
2018-02-02T02:55:55.512Z,5.00
2018-02-02T02:58:23.622Z,5.10
2018-02-02T03:00:51.755Z,5.10
2018-02-02T03:03:19.970Z,5.00
2018-02-02T03:05:48.094Z,5.30
2018-02-02T03:08:16.232Z,5.30
2018-02-02T03:10:44.340Z,5.20
2018-02-02T03:13:12.480Z,5.30
2018-02-02T03:15:40.589Z,5.50
2018-02-02T03:18:08.695Z,5.40
2018-02-02T03:20:36.866Z,5.10
2018-02-02T03:23:04.974Z,4.90
2018-02-02T03:25:33.103Z,4.90
2018-02-02T03:28:01.980Z,4.40
2018-02-02T03:30:30.107Z,4.40
2018-02-02T03:32:58.239Z,4.20
2018-02-02T03:35:27.106Z,4.10
2018-02-02T03:37:55.242Z,4.10
2018-02-02T03:40:23.346Z,4.10
2018-02-02T03:42:51.488Z,3.90
2018-02-02T03:45:19.591Z,4.40
2018-02-02T03:47:47.714Z,4.30
2018-02-02T03:50:15.841Z,4.30
2018-02-02T03:52:43.954Z,4.40
2018-02-02T03:55:12.096Z,4.20
2018-02-02T03:57:40.209Z,4.40
2018-02-02T04:00:08.318Z,4.40
2018-02-02T04:02:36.432Z,4.10
2018-02-02T04:05:05.307Z,4.10
2018-02-02T04:07:33.842Z,4.60
2018-02-02T04:10:01.987Z,4.40
2018-02-02T04:12:30.109Z,4.20
2018-02-02T04:14:58.248Z,4.60
2018-02-02T04:17:26.348Z,4.30
2018-02-02T04:19:54.471Z,4.40
2018-02-02T04:22:23.359Z,4.60
2018-02-02T04:24:52.228Z,4.40
2018-02-02T04:27:20.364Z,4.30
2018-02-02T04:29:48.484Z,4.60
2018-02-02T04:32:16.611Z,4.40
2018-02-02T04:34:47.342Z,4.60
2018-02-02T04:37:15.447Z,4.60
2018-02-02T04:39:43.570Z,4.50
2018-02-02T04:42:11.680Z,4.20
2018-02-02T04:44:39.831Z,4.50
2018-02-02T04:47:07.969Z,4.40
2018-02-02T04:49:36.088Z,4.40
2018-02-02T04:52:04.216Z,4.10
2018-02-02T04:54:33.087Z,4.40
2018-02-02T04:57:01.224Z,4.40
2018-02-02T04:59:29.335Z,4.40
2018-02-02T05:01:57.459Z,4.60
2018-02-02T05:04:25.591Z,4.50
2018-02-02T05:06:54.496Z,4.40
2018-02-02T05:09:23.759Z,4.50
2018-02-02T05:11:51.868Z,4.60
2018-02-02T05:14:20.754Z,4.40
2018-02-02T05:16:49.681Z,4.50
2018-02-02T05:19:18.527Z,4.40
2018-02-02T05:21:47.423Z,4.80
2018-02-02T05:24:16.455Z,4.60
2018-02-02T05:26:45.116Z,4.60
2018-02-02T05:29:14.000Z,4.40
2018-02-02T05:31:42.897Z,4.40
2018-02-02T05:34:11.794Z,4.40
2018-02-02T05:36:39.899Z,4.70
2018-02-02T05:39:08.028Z,4.40
2018-02-02T05:41:36.928Z,4.40
2018-02-02T05:44:05.834Z,4.40
2018-02-02T05:46:34.008Z,4.90
2018-02-02T05:49:02.108Z,4.90
2018-02-02T05:51:30.219Z,4.60
2018-02-02T05:53:59.119Z,4.80
2018-02-02T05:56:28.002Z,4.60
2018-02-02T05:58:56.127Z,4.60
2018-02-02T06:01:24.259Z,5.00
2018-02-02T06:03:53.143Z,4.70
2018-02-02T06:06:22.049Z,4.90
2018-02-02T06:08:50.937Z,4.70
2018-02-02T06:11:19.863Z,4.90
2018-02-02T06:13:48.006Z,4.60
2018-02-02T06:16:16.887Z,4.70
2018-02-02T06:18:45.803Z,4.70
2018-02-02T06:21:13.956Z,4.70
2018-02-02T06:23:42.847Z,4.70
2018-02-02T06:26:11.745Z,5.20
2018-02-02T06:28:40.652Z,5.20
2018-02-02T06:31:08.768Z,4.90
2018-02-02T06:33:36.939Z,5.10
2018-02-02T06:36:05.064Z,4.90
2018-02-02T06:38:33.971Z,5.20
2018-02-02T06:41:02.123Z,5.00
2018-02-02T06:43:31.029Z,5.10
2018-02-02T06:45:59.147Z,5.10
2018-02-02T06:48:27.265Z,5.10
2018-02-02T06:50:55.383Z,5.00
2018-02-02T06:53:23.520Z,5.20
2018-02-02T06:55:51.700Z,5.20
2018-02-02T06:58:19.860Z,5.20
2018-02-02T07:00:47.968Z,5.10
2018-02-02T07:03:16.083Z,5.10
2018-02-02T07:05:44.978Z,5.00
2018-02-02T07:08:13.871Z,4.90
2018-02-02T07:10:42.023Z,5.00
2018-02-02T07:13:10.139Z,5.20
2018-02-02T07:15:38.271Z,5.20
2018-02-02T07:18:06.399Z,5.50
2018-02-02T07:20:34.515Z,5.30
2018-02-02T07:23:02.663Z,5.40
2018-02-02T07:25:30.814Z,5.50
2018-02-02T07:27:59.693Z,5.20
2018-02-02T07:30:27.836Z,5.20
2018-02-02T07:32:55.949Z,5.20
2018-02-02T07:35:24.059Z,5.50
2018-02-02T07:37:53.123Z,5.20
2018-02-02T07:40:21.723Z,5.40
2018-02-02T07:42:49.859Z,5.30
2018-02-02T07:45:18.755Z,5.40
2018-02-02T07:47:46.943Z,5.00
2018-02-02T07:50:15.065Z,5.20
2018-02-02T07:52:43.215Z,5.20
2018-02-02T07:55:11.329Z,5.50
2018-02-02T07:57:40.217Z,5.40
2018-02-02T08:00:08.371Z,5.40
2018-02-02T08:02:36.483Z,5.00
2018-02-02T08:05:05.390Z,5.20
2018-02-02T08:07:33.515Z,5.20
2018-02-02T08:10:01.633Z,5.10
2018-02-02T08:12:29.739Z,5.20
2018-02-02T08:14:57.872Z,5.00
2018-02-02T08:17:26.010Z,5.40
2018-02-02T08:19:54.120Z,5.00
2018-02-02T08:22:22.251Z,5.30
2018-02-02T08:24:50.374Z,5.00
2018-02-02T08:27:18.519Z,4.90
2018-02-02T08:29:46.924Z,5.10
2018-02-02T08:32:15.035Z,5.00
2018-02-02T08:34:43.143Z,5.10
2018-02-02T08:37:12.434Z,5.50
2018-02-02T08:39:40.498Z,5.30
2018-02-02T08:42:08.636Z,4.90
2018-02-02T08:44:36.783Z,5.00
2018-02-02T08:47:05.008Z,5.40
2018-02-02T08:49:33.142Z,5.00
2018-02-02T08:52:01.296Z,5.10
2018-02-02T08:54:30.171Z,5.30
2018-02-02T08:56:58.292Z,5.40
2018-02-02T08:59:26.455Z,5.00
2018-02-02T09:02:00.159Z,5.30
2018-02-02T09:04:28.272Z,5.50
2018-02-02T09:06:56.391Z,5.00
2018-02-02T09:09:24.495Z,5.50
2018-02-02T09:11:52.667Z,5.30
2018-02-02T09:14:20.775Z,5.30
2018-02-02T09:16:48.878Z,5.50
2018-02-02T09:19:17.772Z,5.30
2018-02-02T09:21:53.091Z,5.00
2018-02-02T09:24:21.624Z,5.00
2018-02-02T09:26:49.784Z,4.70
2018-02-02T09:29:17.959Z,5.20
2018-02-02T09:31:46.835Z,4.90
2018-02-02T09:34:15.722Z,4.90
2018-02-02T09:36:44.603Z,5.00
2018-02-02T09:39:12.801Z,4.90
2018-02-02T09:41:41.688Z,5.10
2018-02-02T09:44:09.818Z,5.00
2018-02-02T09:46:38.235Z,4.90
2018-02-02T09:49:07.114Z,5.10
2018-02-02T09:51:35.244Z,5.20
2018-02-02T09:54:03.663Z,5.10
2018-02-02T09:56:32.530Z,5.00
2018-02-02T09:59:00.634Z,5.00
2018-02-02T10:01:29.532Z,5.10
2018-02-02T10:03:58.430Z,5.20
2018-02-02T10:06:26.531Z,5.20
2018-02-02T10:08:54.983Z,5.00
2018-02-02T10:11:23.106Z,5.20
2018-02-02T10:13:51.195Z,5.00
2018-02-02T10:16:19.822Z,5.00
2018-02-02T10:18:48.684Z,5.20
2018-02-02T10:21:17.553Z,5.20
2018-02-02T10:23:45.704Z,5.20
2018-02-02T10:26:13.838Z,5.50
2018-02-02T10:28:42.703Z,5.50
2018-02-02T10:31:10.916Z,5.50
2018-02-02T10:33:39.776Z,5.50
2018-02-02T10:36:08.642Z,5.20
2018-02-02T10:38:36.784Z,5.20
2018-02-02T10:41:04.946Z,5.30
2018-02-02T10:43:33.117Z,5.30
2018-02-02T10:46:01.997Z,5.80
2018-02-02T10:48:30.899Z,5.50
2018-02-02T10:50:59.074Z,5.50
2018-02-02T10:53:27.964Z,5.30
2018-02-02T10:55:56.074Z,5.30
2018-02-02T10:58:24.180Z,5.80
2018-02-02T11:00:58.938Z,5.80
2018-02-02T11:03:32.745Z,5.30
2018-02-02T11:06:01.148Z,5.40
2018-02-02T11:08:29.257Z,5.80
2018-02-02T11:10:57.382Z,5.60
2018-02-02T11:13:25.648Z,5.70
2018-02-02T11:15:53.755Z,5.80
2018-02-02T11:18:21.879Z,5.60
2018-02-02T11:20:50.026Z,5.60
2018-02-02T11:23:18.918Z,5.60
2018-02-02T11:25:47.030Z,5.60
2018-02-02T11:28:15.614Z,6.10
2018-02-02T11:30:44.504Z,6.40
2018-02-02T11:33:13.359Z,6.50
2018-02-02T11:35:41.495Z,6.20
2018-02-02T11:38:09.620Z,6.90
2018-02-02T11:40:38.495Z,7.40
2018-02-02T11:43:06.631Z,7.20
2018-02-02T11:45:34.751Z,7.40
2018-02-02T11:48:02.854Z,7.20
2018-02-02T11:50:30.975Z,7.50
2018-02-02T11:52:59.204Z,7.30
2018-02-02T11:55:28.079Z,8.50
2018-02-02T11:57:56.986Z,8.80
2018-02-02T12:00:25.150Z,8.80
2018-02-02T12:02:53.259Z,8.70
2018-02-02T12:05:21.380Z,8.70
2018-02-02T12:07:50.297Z,8.80
2018-02-02T12:10:19.148Z,8.80
2018-02-02T12:12:47.366Z,9.00
2018-02-02T12:15:15.552Z,8.90
2018-02-02T12:17:44.427Z,8.30
2018-02-02T12:20:12.815Z,8.80
2018-02-02T12:25:56.543Z,8.70
2018-02-02T12:28:30.359Z,8.70
2018-02-02T12:31:05.051Z,8.70
2018-02-02T12:33:36.099Z,8.80
2018-02-02T12:36:09.963Z,8.50
2018-02-02T12:38:38.080Z,8.00
2018-02-02T12:41:06.192Z,7.90
2018-02-02T12:43:34.366Z,8.40
2018-02-02T12:46:03.724Z,8.10
2018-02-02T12:48:40.994Z,8.10
2018-02-02T12:51:16.572Z,7.60
2018-02-02T12:53:45.599Z,7.70
2018-02-02T12:56:14.464Z,7.70
2018-02-02T12:58:43.351Z,7.70
2018-02-02T13:01:12.236Z,7.60
2018-02-02T13:03:40.354Z,7.70
2018-02-02T13:06:08.464Z,7.70
2018-02-02T13:08:36.588Z,7.30
2018-02-02T13:11:04.696Z,7.70
2018-02-02T13:13:32.810Z,7.60
2018-02-02T13:16:01.719Z,7.50
2018-02-02T13:18:29.865Z,7.60
2018-02-02T13:20:57.964Z,7.40
2018-02-02T13:23:26.091Z,7.40
2018-02-02T13:25:54.308Z,7.30
2018-02-02T13:28:23.172Z,7.50
2018-02-02T13:30:51.303Z,7.40
2018-02-02T13:33:19.426Z,7.00
2018-02-02T13:35:48.312Z,7.00
2018-02-02T13:38:16.439Z,7.10
2018-02-02T13:40:44.791Z,7.10
2018-02-02T13:43:14.168Z,7.10
2018-02-02T13:45:42.308Z,6.90
2018-02-02T13:48:10.451Z,7.10
2018-02-02T13:50:39.311Z,6.80
2018-02-02T13:53:08.534Z,7.10
2018-02-02T13:55:36.642Z,6.90
2018-02-02T13:58:04.739Z,7.10
2018-02-02T14:00:33.167Z,7.10
2018-02-02T14:03:01.267Z,7.40
2018-02-02T14:05:29.376Z,7.00
2018-02-02T14:07:58.308Z,6.90
2018-02-02T14:10:26.413Z,6.80
2018-02-02T14:12:54.519Z,7.00
2018-02-02T14:15:23.433Z,7.20
2018-02-02T14:17:52.292Z,7.40
2018-02-02T14:20:20.503Z,7.30
2018-02-02T14:22:49.692Z,7.40
2018-02-02T14:25:17.803Z,7.00
2018-02-02T14:27:45.915Z,7.00
2018-02-02T14:30:14.815Z,7.10
2018-02-02T14:32:43.695Z,7.10
2018-02-02T14:35:11.819Z,7.10
2018-02-02T14:37:40.277Z,7.10
2018-02-02T14:40:08.375Z,6.90
2018-02-02T14:42:36.480Z,7.00
2018-02-02T14:45:04.603Z,6.90
2018-02-02T14:47:32.713Z,6.70
2018-02-02T14:50:00.840Z,6.20
2018-02-02T14:52:28.987Z,6.70
2018-02-02T14:54:57.238Z,6.20
2018-02-02T14:57:25.348Z,6.30
2018-02-02T14:59:53.949Z,6.20
2018-02-02T15:02:22.035Z,6.40
2018-02-02T15:04:50.139Z,6.50
2018-02-02T15:07:18.298Z,6.50
2018-02-02T15:09:46.395Z,6.60
2018-02-02T15:12:14.680Z,6.40
2018-02-02T15:14:43.910Z,6.20
2018-02-02T15:17:12.011Z,6.30
2018-02-02T15:19:40.143Z,6.70
2018-02-02T15:22:09.305Z,6.30
2018-02-02T15:24:37.411Z,6.10
2018-02-02T15:27:06.291Z,6.10
2018-02-02T15:29:35.569Z,5.90
2018-02-02T15:32:03.684Z,5.70
2018-02-02T15:34:32.551Z,5.30
2018-02-02T15:37:00.765Z,5.90
2018-02-02T15:39:28.919Z,5.80
2018-02-02T15:41:57.009Z,5.30
2018-02-02T15:44:25.399Z,5.40
2018-02-02T15:46:54.266Z,5.60
2018-02-02T15:49:23.142Z,5.30
2018-02-02T15:51:52.362Z,5.30
2018-02-02T15:54:20.471Z,5.60
2018-02-02T15:56:49.671Z,5.30
2018-02-02T15:59:17.760Z,5.00
2018-02-02T16:01:45.866Z,5.00
2018-02-02T16:04:14.775Z,5.20
2018-02-02T16:06:43.671Z,5.10
2018-02-02T16:09:11.789Z,5.00
2018-02-02T16:11:39.891Z,5.10
2018-02-02T16:14:08.783Z,4.70
2018-02-02T16:16:37.660Z,4.70
2018-02-02T16:19:05.763Z,5.20
2018-02-02T16:21:34.156Z,4.70
2018-02-02T16:24:02.311Z,4.90
2018-02-02T16:26:31.176Z,5.00
2018-02-02T16:28:59.320Z,5.00
2018-02-02T16:31:27.432Z,5.20
2018-02-02T16:33:56.305Z,5.00
2018-02-02T16:36:24.432Z,5.10
2018-02-02T16:38:52.544Z,5.00
2018-02-02T16:41:20.715Z,5.20
2018-02-02T16:43:48.880Z,5.30
2018-02-02T16:46:16.982Z,5.10
2018-02-02T16:48:45.102Z,5.00
2018-02-02T16:51:13.227Z,5.50
2018-02-02T16:53:42.096Z,5.00
2018-02-02T16:56:10.203Z,5.20
2018-02-02T16:58:40.803Z,5.30
2018-02-02T17:01:08.925Z,5.30
2018-02-02T17:03:37.103Z,5.20
2018-02-02T17:06:06.243Z,5.50
2018-02-02T17:08:34.389Z,5.50
2018-02-02T17:11:02.500Z,5.40
2018-02-02T17:13:30.640Z,5.30
2018-02-02T17:15:58.788Z,5.30
2018-02-02T17:18:26.918Z,5.40
2018-02-02T17:20:56.192Z,5.20
2018-02-02T17:23:24.443Z,5.30
2018-02-02T17:25:52.556Z,5.40
2018-02-02T17:28:20.703Z,5.30
2018-02-02T17:30:48.823Z,5.30
2018-02-02T17:33:16.961Z,5.30
2018-02-02T17:35:45.116Z,5.40
2018-02-02T17:38:13.220Z,5.20
2018-02-02T17:40:41.647Z,5.40
2018-02-02T17:43:10.012Z,5.30
2018-02-02T17:45:38.938Z,5.40
2018-02-02T17:48:07.799Z,5.30
2018-02-02T17:50:36.743Z,5.70
2018-02-02T17:53:04.863Z,5.70
2018-02-02T17:55:33.754Z,5.40
2018-02-02T17:58:02.671Z,5.50
2018-02-02T18:03:36.701Z,5.90
2018-02-02T18:06:04.820Z,5.80
2018-02-02T18:08:32.960Z,5.30
2018-02-02T18:11:01.106Z,5.30
2018-02-02T18:13:30.008Z,5.60
2018-02-02T18:15:58.127Z,5.70
2018-02-02T18:18:26.568Z,5.50
2018-02-02T18:20:54.707Z,5.50
2018-02-02T18:23:24.084Z,5.30
2018-02-02T18:25:52.729Z,5.60
2018-02-02T18:28:20.902Z,5.30
2018-02-02T18:30:49.038Z,5.60
2018-02-02T18:33:17.961Z,5.30
2018-02-02T18:35:46.960Z,5.50
2018-02-02T18:38:15.139Z,5.30
2018-02-02T18:40:43.296Z,5.30
2018-02-02T18:43:11.420Z,5.80
2018-02-02T18:45:39.541Z,5.30
2018-02-02T18:48:07.679Z,5.50
2018-02-02T18:50:35.829Z,5.20
2018-02-02T18:53:03.943Z,5.20
2018-02-02T18:55:32.072Z,5.40
2018-02-02T18:58:00.188Z,5.20
2018-02-02T19:00:29.073Z,5.00
2018-02-02T19:02:57.213Z,5.40
2018-02-02T19:05:25.327Z,5.00
2018-02-02T19:07:54.214Z,5.30
2018-02-02T19:10:23.210Z,5.30
2018-02-02T19:12:51.327Z,5.30
2018-02-02T19:15:19.474Z,5.60
2018-02-02T19:17:48.895Z,5.30
2018-02-02T19:20:17.011Z,5.40
2018-02-02T19:22:45.147Z,5.30
2018-02-02T19:25:13.299Z,5.20
2018-02-02T19:27:42.194Z,5.40
2018-02-02T19:30:10.311Z,5.20
2018-02-02T19:32:38.740Z,5.50
2018-02-02T19:35:07.635Z,5.30
2018-02-02T19:37:36.538Z,5.50
2018-02-02T19:40:04.712Z,5.20
2018-02-02T19:42:32.824Z,5.20
2018-02-02T19:45:00.944Z,5.30
2018-02-02T19:47:29.844Z,5.30
2018-02-02T19:49:57.970Z,5.40
2018-02-02T19:52:26.096Z,5.40
2018-02-02T19:54:54.235Z,5.20
2018-02-02T19:57:23.281Z,5.50
2018-02-02T19:59:51.408Z,5.50
2018-02-02T20:02:20.432Z,5.20
2018-02-02T20:04:48.539Z,5.40
2018-02-02T20:07:16.672Z,5.30
2018-02-02T20:09:44.873Z,5.40
2018-02-02T20:12:12.996Z,5.30
2018-02-02T20:14:43.658Z,5.50
2018-02-02T20:17:11.787Z,5.60
2018-02-02T20:19:40.037Z,5.70
2018-02-02T20:22:08.197Z,5.30
2018-02-02T20:24:36.356Z,5.50
2018-02-02T20:27:04.510Z,5.60
2018-02-02T20:29:33.376Z,6.00
2018-02-02T20:32:01.520Z,6.00
2018-02-02T20:34:29.649Z,5.60
2018-02-02T20:36:58.524Z,5.80
2018-02-02T20:39:27.448Z,5.90
2018-02-02T20:41:55.623Z,6.10
2018-02-02T20:44:23.740Z,5.60
2018-02-02T20:46:52.186Z,5.90
2018-02-02T20:49:20.351Z,6.10
2018-02-02T20:51:48.492Z,6.10
2018-02-02T20:54:17.449Z,5.60
2018-02-02T20:56:45.529Z,5.60
2018-02-02T20:59:13.677Z,5.60
2018-02-02T21:01:42.110Z,5.60
2018-02-02T21:04:10.988Z,5.80
2018-02-02T21:06:39.127Z,5.50
2018-02-02T21:09:07.596Z,5.70
2018-02-02T21:11:35.718Z,5.60
2018-02-02T21:14:03.906Z,5.60
2018-02-02T21:16:32.816Z,5.50
2018-02-02T21:19:00.996Z,5.80
2018-02-02T21:21:29.872Z,6.10
2018-02-02T21:23:59.041Z,6.10
2018-02-02T21:26:27.156Z,6.00
2018-02-02T21:28:55.379Z,6.00
2018-02-02T21:31:23.539Z,6.10
2018-02-02T21:33:51.787Z,6.00
2018-02-02T21:36:19.908Z,5.60
2018-02-02T21:38:48.056Z,5.80
2018-02-02T21:41:16.179Z,5.80
2018-02-02T21:43:45.069Z,6.00
2018-02-02T21:46:13.989Z,5.60
2018-02-02T21:48:42.158Z,5.60
2018-02-02T21:51:10.275Z,6.10
2018-02-02T21:53:38.703Z,6.00
2018-02-02T21:56:06.839Z,6.10
2018-02-02T21:58:34.955Z,5.60
2018-02-02T22:01:03.391Z,5.60
2018-02-02T22:03:31.528Z,6.10
2018-02-02T22:05:59.644Z,5.60
2018-02-02T22:08:28.078Z,5.60
2018-02-02T22:10:56.192Z,6.10
2018-02-02T22:13:24.324Z,6.10
2018-02-02T22:15:52.807Z,6.00
2018-02-02T22:18:20.933Z,5.60
2018-02-02T22:20:49.035Z,5.90
2018-02-02T22:23:17.535Z,6.10
2018-02-02T22:25:45.658Z,5.90
2018-02-02T22:28:13.788Z,6.00
2018-02-02T22:30:41.996Z,6.10
2018-02-02T22:33:10.107Z,5.90
2018-02-02T22:35:38.262Z,5.80
2018-02-02T22:38:06.846Z,5.90
2018-02-02T22:40:36.872Z,6.10
2018-02-02T22:43:05.800Z,5.90
2018-02-02T22:45:33.964Z,5.60
2018-02-02T22:48:02.083Z,6.00
2018-02-02T22:50:30.231Z,6.10
2018-02-02T22:52:58.355Z,5.90
2018-02-02T22:55:27.257Z,5.90
2018-02-02T22:57:55.390Z,5.90
2018-02-02T23:00:23.567Z,5.90
2018-02-02T23:02:51.689Z,5.80
2018-02-02T23:05:20.893Z,5.90
2018-02-02T23:07:49.015Z,6.10
2018-02-02T23:10:17.123Z,5.90
2018-02-02T23:12:45.316Z,5.80
2018-02-02T23:15:13.433Z,5.90
2018-02-02T23:17:41.661Z,6.10
2018-02-02T23:20:09.785Z,6.00
2018-02-02T23:22:38.724Z,5.80
2018-02-02T23:25:06.847Z,5.90
2018-02-02T23:27:35.065Z,5.90
2018-02-02T23:30:03.236Z,5.90
2018-02-02T23:32:31.351Z,5.80
2018-02-02T23:34:59.797Z,6.00
2018-02-02T23:37:27.922Z,5.80
2018-02-02T23:39:56.038Z,6.00
2018-02-02T23:42:25.231Z,5.80
2018-02-02T23:44:53.355Z,6.10
2018-02-02T23:47:21.471Z,6.10
2018-02-02T23:49:50.392Z,5.90
2018-02-02T23:52:18.515Z,5.90
2018-02-02T23:54:46.732Z,6.10
2018-02-02T23:57:14.872Z,5.90
2018-02-02T23:59:43.764Z,6.10
